Time;durP1;ratioP1;P1;durP2;ratioP2;P2;SDS_P1;SDS_P2;PMS_P1;PMS_P2;Temp;Humidity;BMP_temperature;BMP_pressure;BME280_temperature;BME280_humidity;BME280_pressure;Samples;Min_cycle;Max_cycle;Signal;HPM_P1;HPM_P2
2021/05/03 00:02:05;;;;;;;7.77;7.07;;;8.70;99.90;;;;;;5069653;28;20210;-80
2021/05/03 00:04:31;;;;;;;8.27;7.47;;;8.70;99.90;;;;;;5070218;28;20248;-79
2021/05/03 00:06:58;;;;;;;7.73;6.67;;;8.70;99.90;;;;;;5069454;28;20206;-79
2021/05/03 00:09:24;;;;;;;7.57;6.90;;;8.60;99.90;;;;;;5069772;28;20203;-79
2021/05/03 00:11:51;;;;;;;9.20;7.60;;;8.60;99.90;;;;;;5069162;28;20218;-82
2021/05/03 00:14:18;;;;;;;9.53;7.63;;;8.50;99.90;;;;;;5069991;28;20229;-81
2021/05/03 00:16:45;;;;;;;8.70;7.53;;;8.60;99.90;;;;;;5071055;28;20674;-77
2021/05/03 00:19:11;;;;;;;7.07;6.37;;;8.70;99.90;;;;;;5073856;28;20209;-79
2021/05/03 00:21:38;;;;;;;7.00;6.30;;;8.70;99.90;;;;;;5073702;28;20210;-79
2021/05/03 00:24:05;;;;;;;8.70;6.80;;;8.70;99.90;;;;;;5072544;28;20210;-77
2021/05/03 00:26:32;;;;;;;8.83;6.30;;;8.70;99.90;;;;;;5073017;28;20740;-77
2021/05/03 00:28:58;;;;;;;6.97;6.23;;;8.60;99.90;;;;;;5072670;28;20210;-78
2021/05/03 00:31:25;;;;;;;8.43;6.77;;;8.40;99.90;;;;;;5073030;28;20210;-77
2021/05/03 00:33:52;;;;;;;7.20;5.93;;;8.20;99.90;;;;;;5072309;28;20221;-77
2021/05/03 00:36:19;;;;;;;8.60;7.70;;;8.20;99.90;;;;;;5072921;28;20241;-77
2021/05/03 00:38:45;;;;;;;7.73;7.03;;;8.20;99.90;;;;;;5072127;28;20739;-77
2021/05/03 00:41:12;;;;;;;8.20;6.53;;;8.30;99.90;;;;;;5073242;28;20579;-77
2021/05/03 00:43:38;;;;;;;7.23;6.13;;;8.40;99.90;;;;;;5073086;28;20588;-76
2021/05/03 00:46:05;;;;;;;7.50;6.73;;;8.50;99.90;;;;;;5072034;28;20216;-77
2021/05/03 00:48:31;;;;;;;8.40;7.53;;;8.60;99.90;;;;;;5072593;28;20263;-77
2021/05/03 00:50:58;;;;;;;9.63;7.07;;;8.60;99.90;;;;;;5072191;28;20215;-76
2021/05/03 00:53:25;;;;;;;9.90;6.40;;;8.30;99.90;;;;;;5072418;28;20696;-76
2021/05/03 00:55:51;;;;;;;6.50;5.80;;;8.20;99.90;;;;;;5072155;28;20256;-76
2021/05/03 00:58:18;;;;;;;8.57;6.43;;;8.20;99.90;;;;;;5072516;28;20584;-76
2021/05/03 01:00:44;;;;;;;6.70;5.67;;;8.40;99.90;;;;;;5072274;28;20275;-77
2021/05/03 01:03:11;;;;;;;7.57;6.17;;;8.40;99.90;;;;;;5072766;28;20316;-77
2021/05/03 01:05:37;;;;;;;7.00;5.97;;;8.40;99.90;;;;;;5072938;28;20213;-76
2021/05/03 01:08:05;;;;;;;7.77;6.47;;;8.40;99.90;;;;;;5069555;28;20569;-77
2021/05/03 01:10:32;;;;;;;7.77;6.93;;;8.40;99.90;;;;;;5081543;28;20696;-76
2021/05/03 01:12:59;;;;;;;8.13;6.57;;;8.40;99.90;;;;;;5092041;28;20212;-76
2021/05/03 01:15:27;;;;;;;7.70;5.77;;;8.30;99.90;;;;;;5092085;28;20703;-76
2021/05/03 01:17:56;;;;;;;7.30;6.57;;;8.20;99.90;;;;;;5091640;28;20213;-77
2021/05/03 01:20:25;;;;;;;11.47;5.87;;;8.20;99.90;;;;;;5091970;28;20700;-77
2021/05/03 01:22:55;;;;;;;10.63;7.07;;;8.20;99.90;;;;;;5092002;28;20216;-77
2021/05/03 01:25:22;;;;;;;9.30;7.27;;;8.10;99.90;;;;;;5092423;28;20212;-77
2021/05/03 01:27:49;;;;;;;8.03;6.97;;;8.00;99.90;;;;;;5091492;28;20286;-77
2021/05/03 01:30:17;;;;;;;7.60;6.83;;;8.00;99.90;;;;;;5092237;28;20208;-77
2021/05/03 01:32:43;;;;;;;9.47;6.50;;;7.90;99.90;;;;;;5092089;28;20205;-77
2021/05/03 01:35:13;;;;;;;5.73;5.23;;;7.80;99.90;;;;;;5092220;28;20228;-78
2021/05/03 01:37:40;;;;;;;10.20;6.63;;;7.80;99.90;;;;;;5092550;28;20643;-77
2021/05/03 01:40:09;;;;;;;10.07;5.77;;;8.00;99.90;;;;;;5091532;28;20209;-78
2021/05/03 01:42:36;;;;;;;7.87;5.70;;;8.00;99.90;;;;;;5091747;28;20581;-77
2021/05/03 01:45:04;;;;;;;7.07;5.90;;;7.90;99.90;;;;;;5091419;28;20213;-80
2021/05/03 01:47:33;;;;;;;8.53;6.37;;;7.90;99.90;;;;;;5091826;28;20205;-77
2021/05/03 01:49:59;;;;;;;6.67;6.03;;;8.00;99.90;;;;;;5091043;28;20213;-80
2021/05/03 01:52:26;;;;;;;7.03;6.30;;;8.00;99.90;;;;;;5091814;28;20213;-78
2021/05/03 01:54:53;;;;;;;9.27;7.00;;;8.00;99.90;;;;;;5091164;28;20602;-79
2021/05/03 01:57:21;;;;;;;9.50;7.20;;;8.00;99.90;;;;;;5091856;28;20591;-79
2021/05/03 01:59:52;;;;;;;8.60;6.97;;;8.00;99.90;;;;;;5090910;28;20216;-76
2021/05/03 02:02:19;;;;;;;6.17;5.57;;;8.00;99.90;;;;;;5091340;28;20205;-75
2021/05/03 02:04:45;;;;;;;6.57;5.83;;;7.90;99.90;;;;;;5091033;28;20205;-76
2021/05/03 02:07:14;;;;;;;5.67;5.10;;;7.80;99.90;;;;;;5091710;28;20224;-75
2021/05/03 02:09:42;;;;;;;7.17;5.27;;;7.70;99.90;;;;;;5091892;28;20221;-77
2021/05/03 02:12:10;;;;;;;6.60;5.00;;;7.80;99.90;;;;;;5091524;28;20220;-77
2021/05/03 02:14:37;;;;;;;8.60;6.87;;;7.70;99.90;;;;;;5090815;28;20226;-76
2021/05/03 02:17:04;;;;;;;6.80;6.20;;;7.60;99.90;;;;;;5090652;28;20210;-76
2021/05/03 02:19:30;;;;;;;9.97;6.37;;;7.70;99.90;;;;;;5091306;28;20577;-77
2021/05/03 02:21:57;;;;;;;8.03;5.90;;;7.70;99.90;;;;;;5090664;28;20656;-76
2021/05/03 02:24:24;;;;;;;6.70;5.17;;;7.80;99.90;;;;;;5091325;28;20232;-76
2021/05/03 02:26:50;;;;;;;6.40;5.53;;;7.70;99.90;;;;;;5090390;28;20212;-76
2021/05/03 02:29:17;;;;;;;7.10;6.00;;;7.60;99.90;;;;;;5090845;28;20201;-76
2021/05/03 02:31:44;;;;;;;5.73;5.20;;;7.60;99.90;;;;;;5091280;28;20232;-77
2021/05/03 02:34:10;;;;;;;7.10;5.33;;;7.60;99.90;;;;;;5091170;28;20213;-76
2021/05/03 02:36:37;;;;;;;6.03;5.50;;;7.50;99.90;;;;;;5091034;28;20209;-76
2021/05/03 02:39:04;;;;;;;8.13;5.07;;;7.60;99.90;;;;;;5075688;28;20627;-76
2021/05/03 02:41:31;;;;;;;6.63;6.00;;;7.60;99.90;;;;;;5090798;28;20205;-76
2021/05/03 02:43:59;;;;;;;6.23;5.63;;;7.60;99.90;;;;;;5089744;28;20201;-76
2021/05/03 02:46:26;;;;;;;6.17;4.87;;;7.50;99.90;;;;;;5077381;28;20209;-76
2021/05/03 02:48:54;;;;;;;6.20;4.70;;;7.40;99.90;;;;;;5090682;28;20210;-76
2021/05/03 02:51:21;;;;;;;6.87;6.20;;;7.40;99.90;;;;;;5090488;28;20206;-76
2021/05/03 02:53:47;;;;;;;6.90;5.07;;;7.30;99.90;;;;;;5090263;28;20228;-76
2021/05/03 02:56:14;;;;;;;6.00;5.07;;;7.40;99.90;;;;;;5090363;28;20229;-77
2021/05/03 02:58:40;;;;;;;7.93;5.40;;;7.40;99.90;;;;;;5091189;28;20213;-78
2021/05/03 03:01:07;;;;;;;6.80;5.77;;;7.40;99.90;;;;;;5089976;28;20205;-79
2021/05/03 03:03:33;;;;;;;6.53;5.33;;;7.40;99.90;;;;;;5090855;28;20209;-79
2021/05/03 03:06:00;;;;;;;7.33;5.60;;;7.40;99.90;;;;;;5090450;28;20213;-79
2021/05/03 03:08:27;;;;;;;5.77;5.03;;;7.40;99.90;;;;;;5090670;28;20206;-78
2021/05/03 03:10:53;;;;;;;6.33;5.17;;;7.40;99.90;;;;;;5090021;28;20206;-78
2021/05/03 03:13:20;;;;;;;5.13;4.73;;;7.30;99.90;;;;;;5090486;28;20263;-78
2021/05/03 03:15:46;;;;;;;7.97;5.27;;;7.20;99.90;;;;;;5090126;28;20229;-77
2021/05/03 03:18:13;;;;;;;5.43;4.93;;;7.10;99.90;;;;;;5090355;28;20210;-79
2021/05/03 03:20:39;;;;;;;5.47;4.97;;;7.10;99.90;;;;;;5090547;28;20209;-79
2021/05/03 03:23:07;;;;;;;5.50;5.00;;;7.20;99.90;;;;;;5090006;28;20205;-79
2021/05/03 03:25:33;;;;;;;6.60;5.33;;;7.20;99.90;;;;;;5090169;28;20210;-79
2021/05/03 03:28:00;;;;;;;6.57;5.53;;;7.20;99.90;;;;;;5090301;28;20205;-78
2021/05/03 03:30:26;;;;;;;5.57;4.73;;;7.20;99.90;;;;;;5090404;28;20201;-78
2021/05/03 03:32:53;;;;;;;5.37;4.87;;;7.10;99.90;;;;;;5089994;28;20212;-77
2021/05/03 03:35:21;;;;;;;5.47;4.97;;;7.10;99.90;;;;;;5090302;28;20232;-78
2021/05/03 03:37:49;;;;;;;5.33;4.83;;;7.00;99.90;;;;;;5089836;28;20246;-78
2021/05/03 03:40:18;;;;;;;7.00;5.73;;;7.00;99.90;;;;;;5090428;28;20668;-77
2021/05/03 03:42:45;;;;;;;5.00;4.27;;;7.10;99.90;;;;;;5089509;28;20209;-76
2021/05/03 03:45:12;;;;;;;7.17;5.40;;;7.20;99.90;;;;;;5090841;28;20220;-79
2021/05/03 03:47:39;;;;;;;4.93;4.47;;;7.10;99.90;;;;;;5090579;28;20209;-78
2021/05/03 03:50:08;;;;;;;5.90;4.90;;;7.00;99.90;;;;;;5089782;28;20209;-79
2021/05/03 03:52:34;;;;;;;5.50;5.00;;;7.00;99.90;;;;;;5092998;28;20676;-80
2021/05/03 03:55:01;;;;;;;4.70;4.30;;;7.20;99.90;;;;;;5093624;28;20233;-79
2021/05/03 03:57:30;;;;;;;5.70;5.10;;;7.20;99.90;;;;;;5080193;28;20693;-81
2021/05/03 03:59:58;;;;;;;5.07;4.57;;;7.30;99.90;;;;;;5093866;28;20201;-80
2021/05/03 04:02:25;;;;;;;5.43;4.87;;;7.30;99.90;;;;;;5080975;28;20293;-79
2021/05/03 04:05:03;;;;;;;9.03;5.27;;;7.30;99.90;;;;;;5079525;28;20634;-80
2021/05/03 04:07:34;;;;;;;7.67;5.00;;;7.30;99.90;;;;;;5088596;28;20218;-79
2021/05/03 04:10:09;;;;;;;8.53;4.83;;;7.30;99.90;;;;;;5092033;28;20292;-79
2021/05/03 04:12:53;;;;;;;5.03;4.53;;;7.30;99.90;;;;;;5093788;28;20679;-81
2021/05/03 04:21:07;;;;;;;5.53;5.03;;;7.10;99.90;;;;;;5084233;28;20219;-79
2021/05/03 04:23:51;;;;;;;6.07;5.47;;;7.10;99.90;;;;;;5093185;28;20257;-79
2021/05/03 04:26:21;;;;;;;5.60;5.10;;;7.10;99.90;;;;;;5093575;28;20209;-79
2021/05/03 04:28:50;;;;;;;5.87;5.27;;;7.00;99.90;;;;;;5093459;28;20201;-78
2021/05/03 04:31:17;;;;;;;6.50;5.80;;;7.00;99.90;;;;;;5093442;28;20209;-80
2021/05/03 04:33:44;;;;;;;6.47;5.03;;;7.00;99.90;;;;;;5093277;28;20270;-79
2021/05/03 04:36:12;;;;;;;6.90;5.80;;;7.10;99.90;;;;;;5093471;28;20240;-77
2021/05/03 04:38:39;;;;;;;6.13;5.40;;;7.00;99.90;;;;;;5093565;28;20259;-79
2021/05/03 04:41:11;;;;;;;5.77;5.27;;;7.10;99.90;;;;;;5093051;28;20231;-84
2021/05/03 04:43:38;;;;;;;7.53;5.33;;;7.20;99.90;;;;;;5093571;28;20297;-85
2021/05/03 04:46:06;;;;;;;7.33;5.40;;;7.20;99.90;;;;;;5093156;28;20212;-82
2021/05/03 04:48:33;;;;;;;6.70;5.87;;;7.20;99.90;;;;;;5093377;28;20210;-79
2021/05/03 04:51:00;;;;;;;5.20;4.60;;;7.20;99.90;;;;;;5092311;28;20220;-81
2021/05/03 04:53:26;;;;;;;5.87;5.00;;;7.20;99.90;;;;;;5093122;28;20206;-81
2021/05/03 04:55:53;;;;;;;6.03;5.33;;;7.10;99.90;;;;;;5078021;28;20234;-80
2021/05/03 04:58:20;;;;;;;5.13;4.33;;;7.10;99.90;;;;;;5092904;28;20232;-78
2021/05/03 05:00:46;;;;;;;6.37;5.77;;;7.20;99.90;;;;;;5092553;28;20213;-78
2021/05/03 05:03:14;;;;;;;6.83;6.20;;;7.20;99.90;;;;;;5087252;28;20268;-78
2021/05/03 05:05:40;;;;;;;6.17;5.57;;;7.20;99.90;;;;;;5084232;28;20205;-77
2021/05/03 05:08:07;;;;;;;6.07;5.53;;;7.20;99.90;;;;;;5092032;28;20274;-79
2021/05/03 05:10:33;;;;;;;6.23;5.40;;;7.10;99.90;;;;;;5092930;28;20255;-80
2021/05/03 05:13:00;;;;;;;6.33;5.70;;;7.10;99.90;;;;;;5090911;28;20583;-78
2021/05/03 05:15:26;;;;;;;7.83;6.23;;;7.20;99.90;;;;;;5092449;28;20229;-78
2021/05/03 05:17:54;;;;;;;8.33;5.50;;;7.20;99.90;;;;;;5091658;28;20252;-78
2021/05/03 05:20:22;;;;;;;8.17;6.33;;;7.30;99.90;;;;;;5092059;28;20213;-78
2021/05/03 05:22:48;;;;;;;6.57;5.63;;;7.40;99.90;;;;;;5092049;28;20206;-80
2021/05/03 05:25:15;;;;;;;7.07;5.50;;;7.50;99.90;;;;;;5092440;28;20209;-80
2021/05/03 05:27:42;;;;;;;5.57;5.07;;;7.50;99.90;;;;;;5092687;28;20205;-76
2021/05/03 05:30:09;;;;;;;8.07;5.93;;;7.50;99.90;;;;;;5092260;28;20206;-76
2021/05/03 05:32:36;;;;;;;7.90;5.50;;;7.60;99.90;;;;;;5092133;28;20209;-76
2021/05/03 05:35:03;;;;;;;7.83;6.33;;;7.60;99.90;;;;;;5091540;28;20232;-76
2021/05/03 05:37:30;;;;;;;9.17;6.30;;;7.60;99.90;;;;;;5091540;28;20254;-76
2021/05/03 05:39:57;;;;;;;8.40;6.70;;;7.70;99.90;;;;;;5091941;28;20205;-78
2021/05/03 05:42:23;;;;;;;6.70;5.27;;;7.80;99.90;;;;;;5091684;28;20209;-77
2021/05/03 05:44:50;;;;;;;7.80;5.80;;;7.80;99.90;;;;;;5091654;28;20213;-80
2021/05/03 05:47:16;;;;;;;7.80;6.27;;;7.70;99.90;;;;;;5091711;28;20255;-78
2021/05/03 05:49:43;;;;;;;8.60;6.37;;;7.80;99.90;;;;;;5090885;28;20209;-77
2021/05/03 05:52:09;;;;;;;7.37;5.97;;;7.80;99.90;;;;;;5090579;28;20228;-78
2021/05/03 05:54:37;;;;;;;9.43;6.67;;;7.90;99.90;;;;;;5089544;28;20202;-79
2021/05/03 05:57:04;;;;;;;7.30;6.33;;;7.90;99.90;;;;;;5089106;28;20295;-78
2021/05/03 05:59:30;;;;;;;7.27;5.80;;;8.10;99.90;;;;;;5091426;28;20201;-78
2021/05/03 06:01:56;;;;;;;9.57;5.97;;;8.00;99.90;;;;;;5091401;28;20206;-78
2021/05/03 06:04:24;;;;;;;6.83;5.63;;;8.10;99.90;;;;;;5091421;28;20212;-77
2021/05/03 06:06:52;;;;;;;9.37;6.07;;;8.20;99.90;;;;;;5091134;28;20210;-79
2021/05/03 06:09:19;;;;;;;8.60;6.37;;;8.10;99.90;;;;;;5091682;28;20213;-72
2021/05/03 06:11:47;;;;;;;7.47;5.77;;;8.00;99.90;;;;;;5090813;28;20212;-79
2021/05/03 06:14:14;;;;;;;7.23;6.53;;;8.00;99.90;;;;;;5090446;28;20251;-77
2021/05/03 06:16:45;;;;;;;7.17;6.47;;;7.90;99.90;;;;;;5091475;28;20243;-79
2021/05/03 06:19:11;;;;;;;8.50;6.53;;;8.00;99.90;;;;;;5064292;28;20210;-79
2021/05/03 06:21:38;;;;;;;9.80;7.53;;;8.30;99.90;;;;;;5091691;28;20206;-80
2021/05/03 06:24:06;;;;;;;9.33;6.70;;;8.60;99.90;;;;;;5090596;28;20205;-80
2021/05/03 06:26:33;;;;;;;7.53;6.77;;;8.80;99.90;;;;;;5090954;28;20217;-78
2021/05/03 06:29:00;;;;;;;7.17;6.53;;;8.90;99.90;;;;;;5090600;28;20209;-80
2021/05/03 06:31:30;;;;;;;7.70;5.47;;;9.10;99.90;;;;;;5091052;28;20670;-80
2021/05/03 06:33:57;;;;;;;7.20;5.67;;;9.20;99.90;;;;;;5090236;28;20589;-79
2021/05/03 06:36:24;;;;;;;7.33;6.00;;;9.30;99.90;;;;;;5091057;28;20324;-79
2021/05/03 06:38:50;;;;;;;9.73;6.80;;;9.40;99.90;;;;;;5090317;28;20578;-78
2021/05/03 06:41:17;;;;;;;7.80;7.00;;;9.40;99.90;;;;;;5090984;28;20205;-78
2021/05/03 06:43:43;;;;;;;9.73;6.37;;;9.50;99.90;;;;;;5091051;28;20205;-78
2021/05/03 06:46:15;;;;;;;10.70;8.97;;;9.60;99.90;;;;;;5091086;28;20209;-81
2021/05/03 06:48:41;;;;;;;6.43;5.83;;;9.70;99.90;;;;;;5091171;28;20250;-81
2021/05/03 06:51:08;;;;;;;8.00;6.43;;;9.90;99.90;;;;;;5090453;28;20220;-82
2021/05/03 06:53:34;;;;;;;12.40;6.53;;;10.00;99.90;;;;;;5090634;28;20201;-80
2021/05/03 06:56:01;;;;;;;7.60;5.97;;;10.20;99.90;;;;;;5075676;28;20242;-79
2021/05/03 06:58:27;;;;;;;7.23;5.77;;;10.20;99.90;;;;;;5090973;28;20205;-79
2021/05/03 07:00:54;;;;;;;8.20;6.23;;;10.20;99.90;;;;;;5090536;28;20676;-79
2021/05/03 07:03:21;;;;;;;7.00;6.27;;;10.40;99.90;;;;;;5090571;28;20609;-77
2021/05/03 07:05:48;;;;;;;8.87;6.30;;;10.50;99.90;;;;;;5090236;28;20586;-78
2021/05/03 07:08:14;;;;;;;7.17;5.40;;;10.60;99.90;;;;;;5090557;28;20562;-78
2021/05/03 07:10:43;;;;;;;10.13;6.37;;;10.70;99.90;;;;;;5090673;28;20235;-79
2021/05/03 07:13:10;;;;;;;8.53;6.90;;;10.80;99.90;;;;;;5090392;28;20627;-80
2021/05/03 07:15:37;;;;;;;10.43;6.77;;;10.90;99.90;;;;;;5072362;28;20283;-81
2021/05/03 07:18:05;;;;;;;9.73;6.77;;;10.80;99.90;;;;;;5084787;28;20627;-80
2021/05/03 07:20:32;;;;;;;7.17;6.43;;;11.00;99.90;;;;;;5084071;28;20210;-80
2021/05/03 07:22:59;;;;;;;9.43;6.73;;;11.10;99.90;;;;;;5090222;28;20251;-79
2021/05/03 07:25:26;;;;;;;10.00;8.00;;;11.30;99.90;;;;;;5092046;28;20254;-78
2021/05/03 07:30:33;;;;;;;8.37;6.40;;;11.60;99.90;;;;;;5080867;28;20226;-77
2021/05/03 07:33:00;;;;;;;8.07;7.33;;;11.70;99.90;;;;;;5093444;28;20257;-76
2021/05/03 07:35:30;;;;;;;9.60;6.13;;;11.60;99.90;;;;;;5092574;28;20225;-77
2021/05/03 07:37:59;;;;;;;8.03;6.23;;;11.50;99.90;;;;;;5093839;28;20590;-77
2021/05/03 07:40:25;;;;;;;7.70;7.00;;;11.70;99.90;;;;;;5084696;28;20210;-76
2021/05/03 07:42:52;;;;;;;8.57;6.53;;;11.60;99.90;;;;;;5061803;28;20283;-76
2021/05/03 07:45:18;;;;;;;9.23;6.33;;;11.60;99.90;;;;;;5073812;28;20202;-75
2021/05/03 08:28:16;;;;;;;5.47;4.95;;;14.70;99.90;;;;;;5087699;27;21109;-77
2021/05/03 08:33:24;;;;;;;6.70;6.07;;;16.00;99.90;;;;;;5076146;28;20586;-73
2021/05/03 08:35:51;;;;;;;5.93;5.32;;;18.40;99.90;;;;;;5081143;28;20229;-78
2021/05/03 08:38:18;;;;;;;5.90;5.38;;;20.00;99.90;;;;;;5086847;28;20202;-75
2021/05/03 08:40:45;;;;;;;7.90;5.47;;;19.00;99.90;;;;;;5077423;28;20645;-75
2021/05/03 08:43:13;;;;;;;6.53;5.22;;;17.70;99.90;;;;;;5087794;28;20208;-72
2021/05/03 08:45:41;;;;;;;5.45;4.95;;;17.30;99.90;;;;;;5076997;28;20213;-73
2021/05/03 08:48:13;;;;;;;5.55;4.93;;;16.10;99.90;;;;;;5085541;28;20225;-79
2021/05/03 08:50:54;;;;;;;7.18;5.78;;;15.60;99.90;;;;;;5086857;28;20216;-71
2021/05/03 08:53:37;;;;;;;5.85;5.35;;;15.20;99.90;;;;;;5087425;28;20204;-80
2021/05/03 08:56:04;;;;;;;5.88;5.32;;;15.20;99.90;;;;;;5087229;28;20279;-74
2021/05/03 08:58:31;;;;;;;5.43;4.93;;;16.10;99.90;;;;;;5082561;28;20562;-74
2021/05/03 09:00:59;;;;;;;5.97;5.07;;;17.80;99.90;;;;;;5072700;28;20256;-71
2021/05/03 09:03:26;;;;;;;5.40;4.90;;;20.20;99.90;;;;;;5084884;28;20251;-79
2021/05/03 09:05:53;;;;;;;4.10;3.80;;;23.00;99.90;;;;;;5083842;28;20206;-79
2021/05/03 09:08:24;;;;;;;8.55;4.55;;;21.30;99.90;;;;;;5086815;28;20584;-82
2021/05/03 09:10:51;;;;;;;6.20;4.72;;;19.10;99.90;;;;;;5087564;28;20947;-77
2021/05/03 09:13:25;;;;;;;4.90;4.43;;;17.80;99.90;;;;;;5086645;28;20216;-72
2021/05/03 09:18:34;;;;;;;4.85;4.55;;;21.60;99.90;;;;;;5075255;28;20660;-81
2021/05/03 09:21:00;;;;;;;7.45;4.32;;;19.40;99.90;;;;;;5086733;28;20235;-77
2021/05/03 09:23:26;;;;;;;4.35;4.05;;;17.80;99.90;;;;;;5086866;28;20216;-80
2021/05/03 09:25:54;;;;;;;7.38;4.50;;;17.50;99.90;;;;;;5086211;28;20228;-78
2021/05/03 09:28:28;;;;;;;4.93;4.55;;;17.90;99.90;;;;;;5069933;28;20209;-85
2021/05/03 09:31:00;;;;;;;6.30;4.50;;;18.80;99.90;;;;;;5069655;28;20197;-78
2021/05/03 09:33:28;;;;;;;4.72;3.58;;;18.60;99.90;;;;;;5062098;28;20206;-77
2021/05/03 09:35:57;;;;;;;4.90;3.65;;;19.10;99.90;;;;;;5065485;28;20223;-79
2021/05/03 09:38:28;;;;;;;5.47;4.97;;;19.10;99.90;;;;;;5065933;28;20206;-74
2021/05/03 09:41:07;;;;;;;6.85;4.35;;;19.10;99.90;;;;;;5061952;28;20776;-78
2021/05/03 09:43:34;;;;;;;6.10;4.22;;;19.20;99.90;;;;;;5062504;28;20557;-74
2021/05/03 09:46:00;;;;;;;5.10;4.00;;;18.90;99.90;;;;;;5071095;28;20210;-76
2021/05/03 09:48:27;;;;;;;2.40;2.22;;;18.60;99.90;;;;;;5062281;28;20673;-76
2021/05/03 09:50:54;;;;;;;3.28;2.72;;;18.80;99.90;;;;;;5071925;28;20214;-74
2021/05/03 09:56:02;;;;;;;4.38;2.13;;;18.10;99.90;;;;;;5063201;28;20312;-73
2021/05/03 09:58:28;;;;;;;3.92;2.35;;;18.40;99.90;;;;;;5060256;28;20203;-77
2021/05/03 10:00:56;;;;;;;3.42;2.65;;;19.20;99.90;;;;;;5055958;28;20213;-72
2021/05/03 10:03:36;;;;;;;2.65;2.45;;;21.30;99.90;;;;;;5069953;28;20213;-73
2021/05/03 10:06:05;;;;;;;2.30;2.10;;;24.10;99.90;;;;;;5067509;28;20206;-73
2021/05/03 10:08:32;;;;;;;2.22;2.13;;;23.60;99.90;;;;;;5058902;28;20209;-72
2021/05/03 10:11:02;;;;;;;2.35;2.15;;;21.30;99.90;;;;;;5068300;28;20255;-71
2021/05/03 10:13:29;;;;;;;2.95;2.75;;;21.60;99.90;;;;;;5068298;28;20289;-70
2021/05/03 10:15:58;;;;;;;3.13;2.78;;;23.90;99.90;;;;;;5062172;28;20313;-71
2021/05/03 10:18:26;;;;;;;3.30;3.05;;;26.00;99.90;;;;;;5055474;28;20583;-71
2021/05/03 10:20:53;;;;;;;3.78;3.00;;;27.90;99.90;;;;;;5052565;28;20202;-71
2021/05/03 10:23:23;;;;;;;3.75;2.80;;;28.50;99.90;;;;;;5052618;28;20210;-71
2021/05/03 10:25:54;;;;;;;3.70;2.95;;;28.00;99.90;;;;;;5062151;28;20264;-71
2021/05/03 10:28:21;;;;;;;3.15;2.85;;;27.50;99.90;;;;;;5071111;28;20202;-70
2021/05/03 10:30:48;;;;;;;3.33;2.85;;;28.30;99.90;;;;;;5056156;28;20207;-70
2021/05/03 10:33:16;;;;;;;2.60;2.40;;;22.90;99.90;;;;;;5061059;28;20726;-71
2021/05/03 10:35:45;;;;;;;2.88;2.45;;;20.30;99.90;;;;;;5065775;28;20203;-71
2021/05/03 10:38:38;;;;;;;2.33;2.13;;;19.60;99.90;;;;;;5066541;28;20210;-69
2021/05/03 10:41:24;;;;;;;2.28;2.08;;;19.20;99.90;;;;;;5059549;28;20669;-71
2021/05/03 10:43:53;;;;;;;2.75;2.53;;;18.70;99.90;;;;;;5053313;28;20203;-70
2021/05/03 10:49:39;;;;;;;2.78;2.58;;;18.80;99.90;;;;;;5065654;28;20207;-72
2021/05/03 10:52:10;;;;;;;2.88;2.17;;;18.30;99.90;;;;;;5060595;28;20202;-75
2021/05/03 10:54:50;;;;;;;2.08;1.88;;;18.80;99.90;;;;;;5063934;28;20214;-71
2021/05/03 10:57:38;;;;;;;5.07;2.28;;;19.10;99.90;;;;;;5060993;28;20234;-75
2021/05/03 11:00:11;;;;;;;2.88;2.58;;;19.20;99.90;;;;;;5059931;28;20253;-72
2021/05/03 11:02:46;;;;;;;1.92;1.80;;;18.60;99.90;;;;;;5060179;28;20234;-68
2021/05/03 11:05:24;;;;;;;2.60;2.08;;;18.50;99.90;;;;;;5069406;28;20202;-71
2021/05/03 11:08:18;;;;;;;3.67;1.65;;;18.60;99.90;;;;;;5058481;28;20232;-71
2021/05/03 11:11:02;;;;;;;2.40;2.20;;;18.90;99.90;;;;;;5046323;28;20214;-71
2021/05/03 11:14:08;;;;;;;2.72;2.28;;;18.90;99.90;;;;;;5068453;28;20202;-71
2021/05/03 11:16:53;;;;;;;2.35;2.25;;;18.80;99.90;;;;;;5060988;28;20704;-72
2021/05/03 11:19:45;;;;;;;2.33;2.13;;;18.80;99.90;;;;;;5063124;28;20211;-76
2021/05/03 11:22:16;;;;;;;2.05;1.95;;;19.00;99.90;;;;;;5060837;28;20285;-78
2021/05/03 11:24:51;;;;;;;2.95;2.50;;;18.40;99.90;;;;;;5068592;28;20209;-81
2021/05/03 11:27:25;;;;;;;2.35;2.15;;;18.10;99.90;;;;;;5068105;28;20252;-76
2021/05/03 11:29:58;;;;;;;2.58;2.38;;;18.10;99.90;;;;;;5070699;28;20221;-73
2021/05/03 11:32:31;;;;;;;2.95;2.13;;;18.40;99.90;;;;;;5070670;28;20198;-78
2021/05/03 11:35:03;;;;;;;2.65;2.42;;;18.90;99.90;;;;;;5070667;28;20241;-79
2021/05/03 11:37:40;;;;;;;4.90;2.30;;;19.00;99.90;;;;;;5065559;28;20214;-79
2021/05/03 11:40:15;;;;;;;2.30;1.77;;;19.30;99.90;;;;;;5063904;28;20573;-79
2021/05/03 11:43:02;;;;;;;2.15;1.98;;;19.10;99.90;;;;;;5065095;28;20206;-80
2021/05/03 11:45:29;;;;;;;3.30;2.50;;;19.50;99.90;;;;;;5068265;28;20201;-76
2021/05/03 11:47:57;;;;;;;2.55;2.25;;;19.20;99.90;;;;;;5070130;28;20669;-79
2021/05/03 11:50:24;;;;;;;2.53;2.33;;;18.90;99.90;;;;;;5064394;28;20202;-78
2021/05/03 11:52:51;;;;;;;2.90;2.70;;;18.60;99.90;;;;;;5068274;28;20210;-83
2021/05/03 11:55:19;;;;;;;5.47;2.38;;;18.30;99.90;;;;;;5070645;28;20214;-82
2021/05/03 11:57:48;;;;;;;3.00;2.78;;;18.90;99.90;;;;;;5069961;28;20240;-80
2021/05/03 12:00:16;;;;;;;4.38;2.92;;;19.40;99.90;;;;;;5070350;28;20272;-84
2021/05/03 12:02:43;;;;;;;2.95;2.70;;;19.50;99.90;;;;;;5059069;28;20542;-77
2021/05/03 12:05:15;;;;;;;4.50;2.58;;;19.50;99.90;;;;;;5059761;28;20605;-83
2021/05/03 12:07:42;;;;;;;2.47;2.17;;;19.50;99.90;;;;;;5055757;28;20217;-77
2021/05/03 12:10:11;;;;;;;2.20;1.98;;;19.70;99.90;;;;;;5056088;28;20664;-77
2021/05/03 12:12:39;;;;;;;2.50;2.35;;;19.60;99.90;;;;;;5055842;28;20701;-71
2021/05/03 12:15:09;;;;;;;2.20;2.00;;;19.80;99.90;;;;;;5060928;28;20202;-77
2021/05/03 12:17:36;;;;;;;2.40;2.20;;;19.60;99.90;;;;;;5056096;28;20230;-79
2021/05/03 12:20:06;;;;;;;2.60;2.22;;;19.50;99.90;;;;;;5059418;28;20232;-71
2021/05/03 12:22:32;;;;;;;2.53;2.33;;;19.50;99.90;;;;;;5057582;28;20203;-74
2021/05/03 12:25:02;;;;;;;2.38;2.20;;;19.90;99.90;;;;;;5058133;28;20256;-71
2021/05/03 12:27:30;;;;;;;4.38;2.58;;;19.80;99.90;;;;;;5065329;28;20217;-82
2021/05/03 12:29:58;;;;;;;2.55;2.35;;;19.50;99.90;;;;;;5061588;28;20202;-76
2021/05/03 12:32:31;;;;;;;2.83;2.63;;;19.40;99.90;;;;;;5069927;28;20205;-76
2021/05/03 12:34:58;;;;;;;2.90;2.70;;;19.60;99.90;;;;;;5067699;28;20206;-75
2021/05/03 12:37:29;;;;;;;2.92;2.70;;;19.20;99.90;;;;;;5069941;28;20241;-77
2021/05/03 12:40:03;;;;;;;2.58;2.35;;;19.00;99.90;;;;;;5069751;28;20206;-79
2021/05/03 12:42:35;;;;;;;2.70;2.50;;;19.10;99.90;;;;;;5069902;28;20227;-75
2021/05/03 12:45:13;;;;;;;5.57;2.15;;;18.70;99.90;;;;;;5069888;28;20210;-75
2021/05/03 12:47:55;;;;;;;2.38;2.17;;;19.00;99.90;;;;;;5069515;28;20305;-74
2021/05/03 12:50:28;;;;;;;2.08;1.98;;;19.50;99.90;;;;;;5070376;28;20210;-77
2021/05/03 12:53:00;;;;;;;2.28;2.17;;;19.90;99.90;;;;;;5069874;28;20210;-81
2021/05/03 12:55:34;;;;;;;3.55;3.05;;;20.00;99.90;;;;;;5070284;28;20262;-79
2021/05/03 12:58:16;;;;;;;2.60;2.40;;;19.80;99.90;;;;;;5069728;28;20316;-82
2021/05/03 13:01:08;;;;;;;2.20;2.10;;;20.00;99.90;;;;;;5069537;28;20206;-81
2021/05/03 13:03:45;;;;;;;2.80;2.13;;;20.00;99.90;;;;;;5059711;28;20229;-71
2021/05/03 13:06:21;;;;;;;2.60;2.40;;;20.10;99.90;;;;;;5073398;28;20673;-76
2021/05/03 13:12:12;;;;;;;2.80;2.60;;;19.90;99.90;;;;;;5073008;28;20209;-77
2021/05/03 13:29:42;;;;;;;2.58;2.38;;;19.50;99.90;;;;;;5073075;28;20208;-71
2021/05/03 13:32:10;;;;;;;2.83;2.40;;;19.40;99.90;;;;;;5072932;28;20210;-70
2021/05/03 13:34:36;;;;;;;2.83;2.53;;;19.70;99.90;;;;;;5072794;28;20224;-71
2021/05/03 13:37:04;;;;;;;2.67;2.47;;;20.00;99.90;;;;;;5072545;28;20230;-73
2021/05/03 13:39:30;;;;;;;3.15;2.85;;;19.90;99.90;;;;;;5073009;28;20221;-70
2021/05/03 13:41:57;;;;;;;3.38;3.08;;;19.70;99.90;;;;;;5073308;28;20611;-72
2021/05/03 13:44:24;;;;;;;2.75;2.55;;;19.70;99.90;;;;;;5073030;28;20735;-71
2021/05/03 13:46:50;;;;;;;7.38;2.83;;;19.60;99.90;;;;;;5072617;28;20221;-81
2021/05/03 13:49:17;;;;;;;2.35;2.13;;;19.70;99.90;;;;;;5072939;28;20202;-79
2021/05/03 13:51:44;;;;;;;4.47;2.45;;;19.50;99.90;;;;;;5072145;28;20283;-79
2021/05/03 13:54:12;;;;;;;4.05;2.45;;;19.80;99.90;;;;;;5072930;28;20213;-79
2021/05/03 13:56:39;;;;;;;4.82;2.70;;;20.00;99.90;;;;;;5072388;28;20230;-80
2021/05/03 13:59:06;;;;;;;6.90;2.45;;;20.00;99.90;;;;;;5073142;28;20206;-85
2021/05/03 14:01:32;;;;;;;3.67;2.72;;;19.70;99.90;;;;;;5072473;28;20716;-82
2021/05/03 14:03:59;;;;;;;2.50;2.30;;;19.70;99.90;;;;;;5072974;28;20214;-79
2021/05/03 14:06:26;;;;;;;2.80;2.08;;;19.40;99.90;;;;;;5072353;28;20228;-79
2021/05/03 14:08:54;;;;;;;3.40;2.58;;;19.50;99.90;;;;;;5072932;28;20234;-78
2021/05/03 14:11:22;;;;;;;2.17;2.00;;;19.60;99.90;;;;;;5072243;28;20210;-78
2021/05/03 14:13:48;;;;;;;4.65;2.50;;;19.70;99.90;;;;;;5072029;28;20247;-79
2021/05/03 14:16:15;;;;;;;4.00;2.45;;;19.80;99.90;;;;;;5072164;28;20230;-77
2021/05/03 14:18:41;;;;;;;3.30;2.22;;;19.90;99.90;;;;;;5072188;28;20238;-79
2021/05/03 14:21:10;;;;;;;2.08;1.77;;;19.90;99.90;;;;;;5072801;28;20217;-75